createdAt,value
2018-12-23T00:00:45.533Z,1012.60
2018-12-23T00:01:45.007Z,1012.70
2018-12-23T00:02:45.149Z,1012.72
2018-12-23T00:03:44.579Z,1012.72
2018-12-23T00:04:45.110Z,1012.70
2018-12-23T00:05:45.341Z,1012.72
2018-12-23T00:06:45.106Z,1012.76
2018-12-23T00:07:44.475Z,1012.83
2018-12-23T00:08:44.524Z,1012.75
2018-12-23T00:09:45.305Z,1012.72
2018-12-23T00:10:51.177Z,1012.84
2018-12-23T00:11:44.980Z,1012.78
2018-12-23T00:12:45.149Z,1012.80
2018-12-23T00:13:45.001Z,1012.84
2018-12-23T00:14:45.053Z,1012.81
2018-12-23T00:15:45.496Z,1012.84
2018-12-23T00:16:44.632Z,1012.85
2018-12-23T00:17:44.863Z,1012.81
2018-12-23T00:18:44.851Z,1012.76
2018-12-23T00:19:44.940Z,1012.81
2018-12-23T00:20:44.454Z,1012.83
2018-12-23T00:21:45.509Z,1012.83
2018-12-23T00:22:45.497Z,1012.81
2018-12-23T00:23:44.887Z,1012.80
2018-12-23T00:24:45.168Z,1012.82
2018-12-23T00:25:45.125Z,1012.78
2018-12-23T00:26:45.103Z,1012.87
2018-12-23T00:27:44.903Z,1012.88
2018-12-23T00:28:50.825Z,1012.91
2018-12-23T00:29:44.975Z,1012.89
2018-12-23T00:30:45.128Z,1012.92
2018-12-23T00:31:45.852Z,1012.92
2018-12-23T00:32:45.138Z,1012.92
2018-12-23T00:33:45.027Z,1012.87
2018-12-23T00:34:45.127Z,1012.90
2018-12-23T00:35:51.558Z,1012.90
2018-12-23T00:36:45.110Z,1012.93
2018-12-23T00:37:45.263Z,1012.91
2018-12-23T00:38:45.004Z,1012.89
2018-12-23T00:39:45.082Z,1012.92
2018-12-23T00:40:45.143Z,1012.95
2018-12-23T00:41:45.384Z,1012.96
2018-12-23T00:42:45.005Z,1012.98
2018-12-23T00:43:44.813Z,1012.98
2018-12-23T00:44:44.947Z,1012.99
2018-12-23T00:46:44.549Z,1012.98
2018-12-23T00:47:44.549Z,1012.97
2018-12-23T00:48:44.527Z,1013.02
2018-12-23T00:49:44.576Z,1013.03
2018-12-23T00:50:44.564Z,1012.99
2018-12-23T00:51:46.512Z,1013.05
2018-12-23T00:52:45.068Z,1012.99
2018-12-23T00:53:44.494Z,1013.03
2018-12-23T00:54:44.551Z,1013.01
2018-12-23T00:55:44.467Z,1012.98
2018-12-23T00:56:44.548Z,1012.97
2018-12-23T00:57:44.491Z,1012.97
2018-12-23T00:58:44.622Z,1012.94
2018-12-23T00:59:44.532Z,1012.96
2018-12-23T01:00:44.570Z,1012.98
2018-12-23T01:01:45.007Z,1013.00
2018-12-23T01:02:44.482Z,1013.01
2018-12-23T01:03:44.535Z,1013.00
2018-12-23T01:04:44.532Z,1013.09
2018-12-23T01:05:44.546Z,1013.00
2018-12-23T01:07:44.593Z,1013.06
2018-12-23T01:08:44.487Z,1013.07
2018-12-23T01:09:44.054Z,1013.04
2018-12-23T01:10:44.477Z,1013.10
2018-12-23T01:11:44.366Z,1013.08
2018-12-23T01:12:44.974Z,1013.10
2018-12-23T01:13:45.845Z,1013.09
2018-12-23T01:14:44.403Z,1013.05
2018-12-23T01:15:44.609Z,1013.08
2018-12-23T01:16:44.315Z,1013.07
2018-12-23T01:17:43.955Z,1013.07
2018-12-23T01:18:44.565Z,1013.10
2018-12-23T01:19:44.417Z,1013.07
2018-12-23T01:20:44.707Z,1013.04
2018-12-23T01:21:45.016Z,1013.01
2018-12-23T01:22:44.597Z,1013.05
2018-12-23T01:23:44.613Z,1013.00
2018-12-23T01:24:44.634Z,1013.04
2018-12-23T01:25:44.648Z,1013.05
2018-12-23T01:26:44.554Z,1013.04
2018-12-23T01:27:44.741Z,1013.12
2018-12-23T01:28:44.588Z,1013.12
2018-12-23T01:29:44.645Z,1013.08
2018-12-23T01:30:44.566Z,1013.15
2018-12-23T01:31:44.581Z,1013.09
2018-12-23T01:32:44.685Z,1013.08
2018-12-23T01:33:44.668Z,1013.12
2018-12-23T01:34:44.510Z,1013.08
2018-12-23T01:35:44.908Z,1013.10
2018-12-23T01:36:44.574Z,1013.13
2018-12-23T01:37:44.625Z,1013.14
2018-12-23T01:38:44.632Z,1013.14
2018-12-23T01:39:44.724Z,1013.19
2018-12-23T01:40:44.552Z,1013.17
2018-12-23T01:41:44.505Z,1013.14
2018-12-23T01:42:44.596Z,1013.24
2018-12-23T01:43:44.613Z,1013.22
2018-12-23T01:44:44.624Z,1013.26
2018-12-23T01:45:44.871Z,1013.28
2018-12-23T01:46:44.587Z,1013.24
2018-12-23T01:47:44.873Z,1013.25
2018-12-23T01:48:44.509Z,1013.26
2018-12-23T01:49:44.893Z,1013.29
2018-12-23T01:50:44.636Z,1013.33
2018-12-23T01:51:44.556Z,1013.34
2018-12-23T01:52:44.621Z,1013.33
2018-12-23T01:53:44.623Z,1013.32
2018-12-23T01:54:44.060Z,1013.34
2018-12-23T01:55:44.513Z,1013.27
2018-12-23T01:56:44.583Z,1013.32
2018-12-23T01:57:44.523Z,1013.37
2018-12-23T01:58:44.601Z,1013.37
2018-12-23T01:59:44.508Z,1013.35
2018-12-23T02:00:44.531Z,1013.32
2018-12-23T02:01:44.597Z,1013.30
2018-12-23T02:02:44.871Z,1013.31
2018-12-23T02:03:44.757Z,1013.33
2018-12-23T02:04:44.854Z,1013.35
2018-12-23T02:05:46.192Z,1013.37
2018-12-23T02:06:50.138Z,1013.36
2018-12-23T02:07:44.743Z,1013.38
2018-12-23T02:08:44.838Z,1013.36
2018-12-23T02:09:44.674Z,1013.34
2018-12-23T02:10:44.035Z,1013.39
2018-12-23T02:11:44.816Z,1013.44
2018-12-23T02:12:44.626Z,1013.47
2018-12-23T02:13:44.063Z,1013.47
2018-12-23T02:14:44.652Z,1013.44
2018-12-23T02:15:44.766Z,1013.45
2018-12-23T02:16:44.732Z,1013.45
2018-12-23T02:17:44.844Z,1013.44
2018-12-23T02:18:44.767Z,1013.39
2018-12-23T02:19:44.557Z,1013.44
2018-12-23T02:20:44.595Z,1013.41
2018-12-23T02:21:44.626Z,1013.41
2018-12-23T02:22:44.146Z,1013.41
2018-12-23T02:23:44.110Z,1013.47
2018-12-23T02:24:44.104Z,1013.41
2018-12-23T02:25:44.091Z,1013.37
2018-12-23T02:26:44.105Z,1013.44
2018-12-23T02:27:44.160Z,1013.37
2018-12-23T02:29:44.132Z,1013.38
2018-12-23T02:30:44.036Z,1013.32
2018-12-23T02:31:44.119Z,1013.38
2018-12-23T02:32:44.024Z,1013.31
2018-12-23T02:33:44.119Z,1013.43
2018-12-23T02:34:44.052Z,1013.37
2018-12-23T02:35:44.017Z,1013.39
2018-12-23T02:36:44.127Z,1013.41
2018-12-23T02:37:44.092Z,1013.45
2018-12-23T02:38:44.098Z,1013.49
2018-12-23T02:39:44.124Z,1013.46
2018-12-23T02:40:44.131Z,1013.46
2018-12-23T02:41:44.131Z,1013.49
2018-12-23T02:42:44.224Z,1013.49
2018-12-23T02:43:44.126Z,1013.47
2018-12-23T02:44:44.136Z,1013.45
2018-12-23T02:45:44.115Z,1013.48
2018-12-23T02:46:44.070Z,1013.46
2018-12-23T02:47:44.090Z,1013.47
2018-12-23T02:48:44.100Z,1013.53
2018-12-23T02:49:44.141Z,1013.53
2018-12-23T02:50:44.117Z,1013.51
2018-12-23T02:51:44.127Z,1013.55
2018-12-23T02:52:44.381Z,1013.61
2018-12-23T02:53:44.091Z,1013.58
2018-12-23T02:54:44.086Z,1013.60
2018-12-23T02:55:44.092Z,1013.56
2018-12-23T02:56:44.083Z,1013.56
2018-12-23T02:57:44.098Z,1013.55
2018-12-23T02:58:44.106Z,1013.64
2018-12-23T02:59:44.119Z,1013.62
2018-12-23T03:00:44.039Z,1013.65
2018-12-23T03:01:44.195Z,1013.62
2018-12-23T03:02:44.098Z,1013.61
2018-12-23T03:03:44.088Z,1013.55
2018-12-23T03:04:44.032Z,1013.57
2018-12-23T03:05:44.523Z,1013.55
2018-12-23T03:06:43.689Z,1013.58
2018-12-23T03:07:44.170Z,1013.58
2018-12-23T03:08:44.291Z,1013.62
2018-12-23T03:09:44.253Z,1013.62
2018-12-23T03:10:44.050Z,1013.58
2018-12-23T03:11:44.126Z,1013.55
2018-12-23T03:12:43.750Z,1013.53
2018-12-23T03:13:49.806Z,1013.52
2018-12-23T03:14:44.125Z,1013.54
2018-12-23T03:15:44.159Z,1013.59
2018-12-23T03:16:44.191Z,1013.52
2018-12-23T03:17:44.053Z,1013.55
2018-12-23T03:18:43.819Z,1013.51
2018-12-23T03:19:43.596Z,1013.48
2018-12-23T03:21:43.537Z,1013.42
2018-12-23T03:22:43.661Z,1013.41
2018-12-23T03:23:43.577Z,1013.42
2018-12-23T03:24:43.528Z,1013.43
2018-12-23T03:25:43.932Z,1013.41
2018-12-23T03:26:43.579Z,1013.37
2018-12-23T03:27:43.534Z,1013.40
2018-12-23T03:28:43.552Z,1013.46
2018-12-23T03:29:43.729Z,1013.41
2018-12-23T03:30:43.559Z,1013.43
2018-12-23T03:31:44.003Z,1013.43
2018-12-23T03:32:43.510Z,1013.43
2018-12-23T03:33:43.580Z,1013.42
2018-12-23T03:34:43.624Z,1013.44
2018-12-23T03:35:43.579Z,1013.42
2018-12-23T03:36:41.511Z,1013.40
2018-12-23T03:37:43.522Z,1013.38
2018-12-23T03:38:43.587Z,1013.40
2018-12-23T03:40:43.536Z,1013.36
2018-12-23T03:41:43.586Z,1013.39
2018-12-23T03:42:43.681Z,1013.39
2018-12-23T03:43:43.530Z,1013.38
2018-12-23T03:44:45.549Z,1013.45
2018-12-23T03:45:43.554Z,1013.44
2018-12-23T03:46:43.510Z,1013.47
2018-12-23T03:47:43.679Z,1013.44
2018-12-23T03:48:43.550Z,1013.44
2018-12-23T03:49:43.575Z,1013.45
2018-12-23T03:50:43.522Z,1013.43
2018-12-23T03:51:43.618Z,1013.49
2018-12-23T03:52:43.641Z,1013.47
2018-12-23T03:53:43.657Z,1013.48
2018-12-23T03:54:43.475Z,1013.47
2018-12-23T03:55:43.598Z,1013.46
2018-12-23T03:56:43.656Z,1013.47
2018-12-23T03:57:43.450Z,1013.56
2018-12-23T03:58:43.303Z,1013.44
2018-12-23T03:59:43.652Z,1013.48
2018-12-23T04:00:43.500Z,1013.47
2018-12-23T04:01:44.005Z,1013.45
2018-12-23T04:02:43.666Z,1013.43
2018-12-23T04:03:43.686Z,1013.37
2018-12-23T04:04:43.687Z,1013.39
2018-12-23T04:05:43.694Z,1013.34
2018-12-23T04:06:43.661Z,1013.39
2018-12-23T04:07:43.597Z,1013.31
2018-12-23T04:08:43.600Z,1013.37
2018-12-23T04:09:43.103Z,1013.36
2018-12-23T04:10:43.542Z,1013.33
2018-12-23T04:11:43.439Z,1013.32
2018-12-23T04:12:43.035Z,1013.30
2018-12-23T04:13:43.513Z,1013.32
2018-12-23T04:14:43.533Z,1013.30
2018-12-23T04:15:43.594Z,1013.32
2018-12-23T04:16:43.696Z,1013.30
2018-12-23T04:17:43.589Z,1013.34
2018-12-23T04:18:43.715Z,1013.25
2018-12-23T04:19:43.088Z,1013.25
2018-12-23T04:20:43.587Z,1013.28
2018-12-23T04:21:43.631Z,1013.22
2018-12-23T04:22:43.593Z,1013.23
2018-12-23T04:23:43.706Z,1013.20
2018-12-23T04:24:43.762Z,1013.16
2018-12-23T04:25:42.890Z,1013.17
2018-12-23T04:26:43.054Z,1013.16
2018-12-23T04:27:43.615Z,1013.15
2018-12-23T04:28:43.693Z,1013.15
2018-12-23T04:29:43.333Z,1013.18
2018-12-23T04:30:43.598Z,1013.16
2018-12-23T04:31:43.568Z,1013.15
2018-12-23T04:32:42.692Z,1013.14
2018-12-23T04:33:43.504Z,1013.09
2018-12-23T04:34:43.530Z,1013.08
2018-12-23T04:35:43.505Z,1013.09
2018-12-23T04:36:44.885Z,1013.14
2018-12-23T04:37:43.089Z,1013.11
2018-12-23T04:38:45.143Z,1013.09
2018-12-23T04:39:43.147Z,1013.13
2018-12-23T04:40:43.169Z,1013.16
2018-12-23T04:41:43.124Z,1013.10
2018-12-23T04:42:43.042Z,1013.09
2018-12-23T04:43:43.484Z,1013.06
2018-12-23T04:44:43.012Z,1013.08
2018-12-23T04:45:43.031Z,1013.09
2018-12-23T04:46:43.069Z,1013.07
2018-12-23T04:47:43.060Z,1013.10
2018-12-23T04:48:43.019Z,1013.07
2018-12-23T04:49:43.085Z,1013.09
2018-12-23T04:51:43.091Z,1013.11
2018-12-23T04:52:43.108Z,1013.07
2018-12-23T04:53:43.097Z,1013.03
2018-12-23T04:54:43.063Z,1013.05
2018-12-23T04:55:43.273Z,1013.04
2018-12-23T04:56:43.164Z,1013.05
2018-12-23T04:57:43.120Z,1013.06
2018-12-23T04:58:43.540Z,1013.04
2018-12-23T04:59:43.530Z,1013.06
2018-12-23T05:00:43.292Z,1013.09
2018-12-23T05:01:43.051Z,1013.09
2018-12-23T05:02:43.315Z,1013.07
2018-12-23T05:03:43.277Z,1013.05
2018-12-23T05:04:43.069Z,1013.05
2018-12-23T05:05:43.123Z,1013.01
2018-12-23T05:06:43.435Z,1013.00
2018-12-23T05:07:43.187Z,1013.00
2018-12-23T05:08:43.079Z,1012.99
2018-12-23T05:09:43.137Z,1012.96
2018-12-23T05:10:43.076Z,1012.92
2018-12-23T05:11:42.806Z,1012.88
2018-12-23T05:12:43.161Z,1012.92
2018-12-23T05:14:44.672Z,1012.91
2018-12-23T05:15:49.094Z,1012.89
2018-12-23T05:16:43.136Z,1012.90
2018-12-23T05:17:43.538Z,1012.85
2018-12-23T05:18:42.610Z,1012.87
2018-12-23T05:19:43.019Z,1012.85
2018-12-23T05:20:42.845Z,1012.86
2018-12-23T05:21:43.061Z,1012.92
2018-12-23T05:22:42.647Z,1012.91
2018-12-23T05:23:43.166Z,1012.87
2018-12-23T05:24:43.224Z,1012.87
2018-12-23T05:25:43.136Z,1012.83
2018-12-23T05:26:43.094Z,1012.85
2018-12-23T05:28:43.150Z,1012.85
2018-12-23T05:29:43.091Z,1012.86
2018-12-23T05:30:43.471Z,1012.79
2018-12-23T05:31:43.090Z,1012.84
2018-12-23T05:32:43.254Z,1012.88
2018-12-23T05:33:43.062Z,1012.89
2018-12-23T05:34:43.293Z,1012.97
2018-12-23T05:35:43.372Z,1012.91
2018-12-23T05:36:42.651Z,1012.95
2018-12-23T05:37:42.978Z,1012.94
2018-12-23T05:38:43.160Z,1012.93
2018-12-23T05:39:42.901Z,1012.94
2018-12-23T05:40:43.139Z,1012.94
2018-12-23T05:41:43.128Z,1012.97
2018-12-23T05:42:43.065Z,1012.95
2018-12-23T05:43:43.176Z,1013.04
2018-12-23T05:44:43.035Z,1013.02
2018-12-23T05:45:43.046Z,1012.99
2018-12-23T05:46:43.557Z,1013.05
2018-12-23T05:47:42.514Z,1012.98
2018-12-23T05:48:43.190Z,1013.00
2018-12-23T05:49:43.117Z,1012.99
2018-12-23T05:50:43.028Z,1012.98
2018-12-23T05:51:42.514Z,1013.01
2018-12-23T05:52:42.552Z,1013.02
2018-12-23T05:53:43.085Z,1013.01
2018-12-23T05:54:42.588Z,1013.00
2018-12-23T05:55:42.515Z,1013.01
2018-12-23T05:56:42.551Z,1013.05
2018-12-23T05:57:42.566Z,1013.08
2018-12-23T05:58:42.537Z,1013.07
2018-12-23T05:59:42.553Z,1013.14
2018-12-23T06:00:42.412Z,1013.11
2018-12-23T06:01:42.603Z,1013.02
2018-12-23T06:02:42.554Z,1013.06
2018-12-23T06:03:42.608Z,1013.03
2018-12-23T06:04:42.565Z,1013.07
2018-12-23T06:05:42.937Z,1013.08
2018-12-23T06:06:42.605Z,1013.06
2018-12-23T06:07:42.471Z,1013.06
2018-12-23T06:08:42.434Z,1013.08
2018-12-23T06:09:42.469Z,1013.08
2018-12-23T06:10:42.210Z,1013.07
2018-12-23T06:11:42.605Z,1013.13
2018-12-23T06:12:42.703Z,1013.12
2018-12-23T06:13:42.577Z,1013.07
2018-12-23T06:14:42.578Z,1013.16
2018-12-23T06:15:42.423Z,1013.18
2018-12-23T06:16:42.704Z,1013.18
2018-12-23T06:17:42.271Z,1013.17
2018-12-23T06:18:42.566Z,1013.20
2018-12-23T06:19:42.645Z,1013.22
2018-12-23T06:20:42.591Z,1013.19
2018-12-23T06:21:42.505Z,1013.18
2018-12-23T06:22:42.469Z,1013.19
2018-12-23T06:23:42.284Z,1013.17
2018-12-23T06:24:42.051Z,1013.20
2018-12-23T06:25:42.488Z,1013.21
2018-12-23T06:26:42.578Z,1013.15
2018-12-23T06:27:42.611Z,1013.12
2018-12-23T06:28:42.613Z,1013.15
2018-12-23T06:29:42.603Z,1013.16
2018-12-23T06:30:42.584Z,1013.13
2018-12-23T06:31:42.614Z,1013.09
2018-12-23T06:32:42.578Z,1013.12
2018-12-23T06:33:42.511Z,1013.09
2018-12-23T06:34:42.710Z,1013.11
2018-12-23T06:35:42.619Z,1013.17
2018-12-23T06:36:42.601Z,1013.13
2018-12-23T06:37:41.934Z,1013.12
2018-12-23T06:38:42.579Z,1013.11
2018-12-23T06:39:42.385Z,1013.13
2018-12-23T06:40:42.593Z,1013.18
2018-12-23T06:41:42.615Z,1013.11
2018-12-23T06:42:42.610Z,1013.13
2018-12-23T06:43:42.363Z,1013.21
2018-12-23T06:44:42.068Z,1013.19
2018-12-23T06:45:42.123Z,1013.16
2018-12-23T06:46:42.419Z,1013.21
2018-12-23T06:47:42.637Z,1013.19
2018-12-23T06:48:42.725Z,1013.22
2018-12-23T06:49:42.689Z,1013.23
2018-12-23T06:50:42.682Z,1013.22
2018-12-23T06:51:42.781Z,1013.25
2018-12-23T06:52:42.143Z,1013.26
2018-12-23T06:53:42.626Z,1013.21
2018-12-23T06:54:42.554Z,1013.27
2018-12-23T06:55:42.565Z,1013.23
2018-12-23T06:56:42.624Z,1013.26
2018-12-23T06:57:42.600Z,1013.27
2018-12-23T06:58:42.618Z,1013.25
2018-12-23T06:59:42.692Z,1013.33
2018-12-23T07:00:42.634Z,1013.36
2018-12-23T07:01:42.081Z,1013.33
2018-12-23T07:02:42.615Z,1013.33
2018-12-23T07:03:42.790Z,1013.29
2018-12-23T07:04:42.456Z,1013.32
2018-12-23T07:05:42.530Z,1013.32
2018-12-23T07:06:42.602Z,1013.33
2018-12-23T07:07:42.548Z,1013.31
2018-12-23T07:08:42.086Z,1013.30
2018-12-23T07:09:42.181Z,1013.29
2018-12-23T07:10:42.035Z,1013.30
2018-12-23T07:11:41.974Z,1013.27
2018-12-23T07:12:42.120Z,1013.30
2018-12-23T07:13:42.725Z,1013.27
2018-12-23T07:14:48.206Z,1013.27
2018-12-23T07:15:42.026Z,1013.30
2018-12-23T07:17:17.541Z,1013.26
2018-12-23T07:17:42.102Z,1013.30
2018-12-23T07:18:42.169Z,1013.22
2018-12-23T07:19:42.144Z,1013.27
2018-12-23T07:20:42.433Z,1013.25
2018-12-23T07:21:42.574Z,1013.24
2018-12-23T07:22:42.196Z,1013.22
2018-12-23T07:23:42.115Z,1013.23
2018-12-23T07:24:42.116Z,1013.22
2018-12-23T07:25:42.174Z,1013.24
2018-12-23T07:26:43.644Z,1013.21
2018-12-23T07:27:42.129Z,1013.24
2018-12-23T07:28:42.251Z,1013.24
2018-12-23T07:29:42.118Z,1013.27
2018-12-23T07:30:42.063Z,1013.24
2018-12-23T07:31:42.136Z,1013.25
2018-12-23T07:32:42.126Z,1013.25
2018-12-23T07:33:42.060Z,1013.25
2018-12-23T07:34:42.109Z,1013.30
2018-12-23T07:35:42.118Z,1013.26
2018-12-23T07:36:49.380Z,1013.27
2018-12-23T07:37:42.133Z,1013.28
2018-12-23T07:38:42.168Z,1013.25
2018-12-23T07:39:42.131Z,1013.27
2018-12-23T07:40:42.071Z,1013.29
2018-12-23T07:41:41.616Z,1013.26
2018-12-23T07:42:41.433Z,1013.29
2018-12-23T07:43:42.123Z,1013.31
2018-12-23T07:44:42.018Z,1013.29
2018-12-23T07:45:42.041Z,1013.29
2018-12-23T07:46:41.593Z,1013.26
2018-12-23T07:47:42.127Z,1013.26
2018-12-23T07:48:42.189Z,1013.26
2018-12-23T07:49:42.130Z,1013.21
2018-12-23T07:50:42.126Z,1013.24
2018-12-23T07:51:42.100Z,1013.22
2018-12-23T07:52:42.114Z,1013.21
2018-12-23T07:53:42.085Z,1013.16
2018-12-23T07:54:42.064Z,1013.19
2018-12-23T07:55:44.102Z,1013.22
2018-12-23T07:56:42.055Z,1013.18
2018-12-23T07:57:42.131Z,1013.17
2018-12-23T07:58:42.108Z,1013.15
2018-12-23T07:59:42.556Z,1013.14
2018-12-23T08:00:41.697Z,1013.16
2018-12-23T08:01:42.081Z,1013.18
2018-12-23T08:02:42.166Z,1013.20
2018-12-23T08:03:42.139Z,1013.19
2018-12-23T08:04:42.220Z,1013.23
2018-12-23T08:05:42.210Z,1013.19
2018-12-23T08:06:42.224Z,1013.19
2018-12-23T08:07:42.039Z,1013.18
2018-12-23T08:08:42.073Z,1013.21
2018-12-23T08:09:42.178Z,1013.24
2018-12-23T08:10:42.127Z,1013.23
2018-12-23T08:11:42.302Z,1013.18
2018-12-23T08:12:42.142Z,1013.20
2018-12-23T08:13:42.231Z,1013.18
2018-12-23T08:14:41.381Z,1013.18
2018-12-23T08:15:42.104Z,1013.19
2018-12-23T08:16:42.144Z,1013.16
2018-12-23T08:17:42.121Z,1013.21
2018-12-23T08:18:41.582Z,1013.10
2018-12-23T08:19:42.129Z,1013.11
2018-12-23T08:20:41.494Z,1013.11
2018-12-23T08:21:48.193Z,1013.09
2018-12-23T08:22:42.164Z,1013.12
2018-12-23T08:23:42.215Z,1013.09
2018-12-23T08:24:41.613Z,1013.13
2018-12-23T08:25:44.096Z,1013.04
2018-12-23T08:26:43.632Z,1013.10
2018-12-23T08:27:41.920Z,1013.09
2018-12-23T08:28:42.072Z,1013.06
2018-12-23T08:29:41.639Z,1012.98
2018-12-23T08:30:42.020Z,1013.05
2018-12-23T08:31:48.720Z,1013.02
2018-12-23T08:32:42.139Z,1013.03
2018-12-23T08:33:43.673Z,1013.06
2018-12-23T08:34:43.664Z,1013.07
2018-12-23T08:35:42.183Z,1013.07
2018-12-23T08:36:42.091Z,1013.13
2018-12-23T08:37:44.525Z,1013.04
2018-12-23T08:38:48.045Z,1013.12
2018-12-23T08:39:41.374Z,1013.06
2018-12-23T08:40:41.323Z,1013.06
2018-12-23T08:41:42.054Z,1013.02
2018-12-23T08:42:41.678Z,1013.03
2018-12-23T08:43:41.599Z,1013.02
2018-12-23T08:44:41.574Z,1013.02
2018-12-23T08:45:41.628Z,1013.03
2018-12-23T08:46:41.811Z,1013.03
2018-12-23T08:47:41.656Z,1013.10
2018-12-23T08:48:41.667Z,1013.05
2018-12-23T08:49:41.645Z,1013.05
2018-12-23T08:50:41.618Z,1013.09
2018-12-23T08:51:41.652Z,1013.03
2018-12-23T08:52:41.672Z,1013.07
2018-12-23T08:53:42.053Z,1013.04
2018-12-23T08:54:41.127Z,1013.05
2018-12-23T08:55:41.572Z,1013.00
2018-12-23T08:56:41.731Z,1013.03
2018-12-23T08:57:41.823Z,1013.01
2018-12-23T08:58:41.153Z,1013.00
2018-12-23T08:59:41.146Z,1012.99
2018-12-23T09:00:41.664Z,1012.93
2018-12-23T09:01:41.647Z,1012.91
2018-12-23T09:02:41.819Z,1012.96
2018-12-23T09:03:41.812Z,1012.92
2018-12-23T09:04:41.666Z,1012.95
2018-12-23T09:05:41.596Z,1012.99
2018-12-23T09:06:41.541Z,1012.96
2018-12-23T09:07:41.647Z,1012.97
2018-12-23T09:08:42.138Z,1013.01
2018-12-23T09:09:42.041Z,1013.04
2018-12-23T09:10:41.134Z,1013.07
2018-12-23T09:11:42.975Z,1013.11
2018-12-23T09:12:42.112Z,1013.10
2018-12-23T09:13:41.576Z,1013.09
2018-12-23T09:14:41.170Z,1013.12
2018-12-23T09:15:42.058Z,1013.11
2018-12-23T09:16:41.673Z,1013.10
2018-12-23T09:17:42.114Z,1013.14
2018-12-23T09:18:41.121Z,1013.13
2018-12-23T09:19:41.662Z,1013.13
2018-12-23T09:20:41.686Z,1013.12
2018-12-23T09:21:41.656Z,1013.14
2018-12-23T09:22:41.680Z,1013.13
2018-12-23T09:23:41.663Z,1013.07
2018-12-23T09:24:41.907Z,1013.11
2018-12-23T09:25:41.651Z,1013.08
2018-12-23T09:26:41.693Z,1013.11
2018-12-23T09:27:41.616Z,1013.14
2018-12-23T09:28:41.670Z,1013.05
2018-12-23T09:29:41.661Z,1013.08
2018-12-23T09:30:42.115Z,1013.04
2018-12-23T09:31:41.127Z,1013.06
2018-12-23T09:32:41.701Z,1013.02
2018-12-23T09:33:41.663Z,1013.04
2018-12-23T09:34:42.075Z,1013.05
2018-12-23T09:35:41.658Z,1013.02
2018-12-23T09:36:41.680Z,1012.98
2018-12-23T09:37:41.910Z,1012.98
2018-12-23T09:38:41.649Z,1012.99
2018-12-23T09:39:41.672Z,1012.98
2018-12-23T09:40:41.622Z,1012.97
2018-12-23T09:41:41.658Z,1012.94
2018-12-23T09:42:41.156Z,1012.94
2018-12-23T09:43:41.121Z,1012.93
2018-12-23T09:44:41.164Z,1012.90
2018-12-23T09:45:41.174Z,1012.90
2018-12-23T09:46:41.580Z,1012.89
2018-12-23T09:47:41.562Z,1012.85
2018-12-23T09:48:40.935Z,1012.89
2018-12-23T09:49:41.463Z,1012.85
2018-12-23T09:50:41.321Z,1012.90
2018-12-23T09:51:47.164Z,1012.89
2018-12-23T09:52:41.615Z,1012.90
2018-12-23T09:53:43.113Z,1012.88
2018-12-23T09:54:41.597Z,1012.86
2018-12-23T09:55:40.851Z,1012.81
2018-12-23T09:56:41.602Z,1012.82
2018-12-23T09:57:41.597Z,1012.81
2018-12-23T09:58:41.060Z,1012.82
2018-12-23T09:59:41.591Z,1012.83
2018-12-23T10:00:41.109Z,1012.85
2018-12-23T10:01:41.597Z,1012.85
2018-12-23T10:02:41.059Z,1012.82
2018-12-23T10:03:41.063Z,1012.78
2018-12-23T10:04:41.129Z,1012.75
2018-12-23T10:05:41.441Z,1012.76
2018-12-23T10:06:41.174Z,1012.75
2018-12-23T10:07:41.574Z,1012.71
2018-12-23T10:08:40.943Z,1012.75
2018-12-23T10:09:41.154Z,1012.71
2018-12-23T10:10:41.194Z,1012.73
2018-12-23T10:11:41.261Z,1012.63
2018-12-23T10:12:41.593Z,1012.69
2018-12-23T10:13:40.646Z,1012.61
2018-12-23T10:14:41.694Z,1012.60
2018-12-23T10:15:41.174Z,1012.60
2018-12-23T10:16:41.181Z,1012.56
2018-12-23T10:17:41.193Z,1012.68
2018-12-23T10:18:41.136Z,1012.64
2018-12-23T10:19:41.137Z,1012.67
2018-12-23T10:20:41.256Z,1012.67
2018-12-23T10:21:41.294Z,1012.63
2018-12-23T10:22:41.229Z,1012.63
2018-12-23T10:23:41.597Z,1012.62
2018-12-23T10:24:41.156Z,1012.68
2018-12-23T10:25:41.259Z,1012.67
2018-12-23T10:26:41.250Z,1012.67
2018-12-23T10:27:41.556Z,1012.71
2018-12-23T10:28:41.186Z,1012.69
2018-12-23T10:29:40.700Z,1012.63
2018-12-23T10:30:43.177Z,1012.62
2018-12-23T10:31:41.566Z,1012.55
2018-12-23T10:32:41.185Z,1012.50
2018-12-23T10:33:41.609Z,1012.46
2018-12-23T10:34:41.080Z,1012.46
2018-12-23T10:35:41.164Z,1012.43
2018-12-23T10:36:41.599Z,1012.41
2018-12-23T10:37:40.670Z,1012.42
2018-12-23T10:38:41.181Z,1012.42
2018-12-23T10:39:41.227Z,1012.42
2018-12-23T10:40:41.390Z,1012.42
2018-12-23T10:41:41.177Z,1012.40
2018-12-23T10:42:41.577Z,1012.33
2018-12-23T10:43:40.926Z,1012.29
2018-12-23T10:44:41.118Z,1012.31
2018-12-23T10:45:41.617Z,1012.32
2018-12-23T10:46:41.076Z,1012.31
2018-12-23T10:47:41.565Z,1012.29
2018-12-23T10:48:41.105Z,1012.30
2018-12-23T10:49:40.714Z,1012.28
2018-12-23T10:50:41.158Z,1012.25
2018-12-23T10:51:40.788Z,1012.24
2018-12-23T10:52:41.189Z,1012.15
2018-12-23T10:53:41.095Z,1012.17
2018-12-23T10:54:41.165Z,1012.16
2018-12-23T10:55:41.576Z,1012.18
2018-12-23T10:56:41.322Z,1012.20
2018-12-23T10:57:41.226Z,1012.11
2018-12-23T10:58:41.263Z,1012.11
2018-12-23T10:59:40.546Z,1012.04
2018-12-23T11:00:43.087Z,1012.09
2018-12-23T11:01:41.159Z,1012.06
2018-12-23T11:02:41.115Z,1012.05
2018-12-23T11:03:42.675Z,1011.97
2018-12-23T11:04:41.078Z,1011.90
2018-12-23T11:05:42.686Z,1011.94
2018-12-23T11:06:43.126Z,1011.90
2018-12-23T11:07:40.820Z,1011.88
2018-12-23T11:08:41.061Z,1011.88
2018-12-23T11:09:40.929Z,1011.84
2018-12-23T11:10:41.085Z,1011.85
2018-12-23T11:11:40.551Z,1011.81
2018-12-23T11:12:40.560Z,1011.78
2018-12-23T11:13:40.588Z,1011.71
2018-12-23T11:14:40.879Z,1011.72
2018-12-23T11:15:40.144Z,1011.78
2018-12-23T11:16:40.822Z,1011.73
2018-12-23T11:17:40.640Z,1011.72
2018-12-23T11:18:41.078Z,1011.72
2018-12-23T11:19:40.932Z,1011.67
2018-12-23T11:20:40.701Z,1011.67
2018-12-23T11:21:40.795Z,1011.70
2018-12-23T11:22:41.130Z,1011.68
2018-12-23T11:23:41.087Z,1011.69
2018-12-23T11:24:40.663Z,1011.64
2018-12-23T11:25:40.939Z,1011.66
2018-12-23T11:26:41.105Z,1011.67
2018-12-23T11:27:41.061Z,1011.64
2018-12-23T11:28:40.173Z,1011.68
2018-12-23T11:29:40.713Z,1011.63
2018-12-23T11:30:40.720Z,1011.64
2018-12-23T11:31:40.644Z,1011.60
2018-12-23T11:32:40.684Z,1011.55
2018-12-23T11:33:40.706Z,1011.54
2018-12-23T11:34:41.138Z,1011.48
2018-12-23T11:35:40.610Z,1011.51
2018-12-23T11:36:40.618Z,1011.49
2018-12-23T11:37:40.687Z,1011.51
2018-12-23T11:38:40.158Z,1011.43
2018-12-23T11:39:40.940Z,1011.42
2018-12-23T11:40:40.197Z,1011.46
2018-12-23T11:41:41.138Z,1011.38
2018-12-23T11:42:40.062Z,1011.40
2018-12-23T11:43:40.669Z,1011.37
2018-12-23T11:44:41.091Z,1011.34
2018-12-23T11:45:40.167Z,1011.34
2018-12-23T11:46:41.078Z,1011.32
2018-12-23T11:47:40.654Z,1011.34
2018-12-23T11:48:40.655Z,1011.24
2018-12-23T11:49:40.652Z,1011.28
2018-12-23T11:50:41.046Z,1011.20
2018-12-23T11:51:41.111Z,1011.17
2018-12-23T11:53:01.102Z,1011.18
2018-12-23T11:53:40.684Z,1011.18
2018-12-23T11:54:40.794Z,1011.16
2018-12-23T11:55:41.120Z,1011.11
2018-12-23T11:56:40.086Z,1011.13
2018-12-23T11:57:40.624Z,1011.06
2018-12-23T11:58:40.618Z,1011.01
2018-12-23T11:59:40.565Z,1011.01
2018-12-23T12:00:40.252Z,1010.95
2018-12-23T12:01:41.104Z,1010.94
2018-12-23T12:02:40.183Z,1010.89
2018-12-23T12:03:40.683Z,1010.88
2018-12-23T12:04:40.736Z,1010.89
2018-12-23T12:05:40.617Z,1010.92
2018-12-23T12:06:40.662Z,1010.88
2018-12-23T12:07:40.739Z,1010.87
2018-12-23T12:08:43.733Z,1010.89
2018-12-23T12:09:40.672Z,1010.93
2018-12-23T12:10:40.727Z,1010.90
2018-12-23T12:11:41.042Z,1010.87
2018-12-23T12:12:40.647Z,1010.98
2018-12-23T12:13:41.059Z,1010.91